Time;durP1;ratioP1;P1;durP2;ratioP2;P2;SDS_P1;SDS_P2;PMS_P1;PMS_P2;Temp;Humidity;BMP_temperature;BMP_pressure;BME280_temperature;BME280_humidity;BME280_pressure;Samples;Min_cycle;Max_cycle;Signal;HPM_P1;HPM_P2
2023/01/28 00:01:03;;;;;;;;;10.25;9.00;;;;;4.11;69.89;103020.19;4976674;28;11476;-68
2023/01/28 00:03:29;;;;;;;;;9.00;8.25;;;;;4.07;69.92;103029.34;4989090;28;11518;-67
2023/01/28 00:06:04;;;;;;;;;10.00;6.00;;;;;4.08;69.93;103036.38;4991947;28;11467;-67
2023/01/28 00:08:32;;;;;;;;;6.00;5.50;;;;;4.05;70.25;103031.22;4987715;28;12510;-67
2023/01/28 00:11:03;;;;;;;;;7.00;7.00;;;;;4.06;70.19;103024.97;5012378;28;11445;-67
2023/01/28 00:13:30;;;;;;;;;7.25;7.00;;;;;4.09;70.13;103027.41;5001928;28;11511;-67
2023/01/28 00:16:01;;;;;;;;;4.00;4.00;;;;;4.04;70.04;103018.88;5011948;28;11443;-68
2023/01/28 00:18:28;;;;;;;;;4.25;3.00;;;;;4.00;70.13;103017.34;5005223;28;11541;-67
2023/01/28 00:20:59;;;;;;;;;3.50;3.50;;;;;3.94;70.28;103018.63;4981465;28;11429;-66
2023/01/28 00:23:27;;;;;;;;;9.00;5.00;;;;;3.83;69.21;103024.59;4992910;28;11454;-66
2023/01/28 00:25:54;;;;;;;;;7.25;6.75;;;;;3.78;70.36;103016.06;4978080;28;11493;-68
2023/01/28 00:28:21;;;;;;;;;4.00;4.00;;;;;3.78;70.44;103012.53;4981524;28;11454;-67
2023/01/28 00:30:47;;;;;;;;;7.75;7.00;;;;;3.83;70.00;103011.28;5010201;28;11426;-68
2023/01/28 00:33:14;;;;;;;;;7.50;7.00;;;;;3.91;70.23;103016.13;5006996;28;11609;-68
2023/01/28 00:35:41;;;;;;;;;5.00;4.00;;;;;3.98;69.89;103022.78;4998881;28;11449;-68
2023/01/28 00:38:09;;;;;;;;;5.00;5.00;;;;;4.03;69.84;103017.16;4986129;28;11578;-68
2023/01/28 00:40:35;;;;;;;;;6.50;4.00;;;;;4.08;69.54;103012.38;5009420;28;11427;-67
2023/01/28 00:43:02;;;;;;;;;3.50;3.50;;;;;4.11;69.79;103021.03;5005001;28;11602;-68
2023/01/28 00:45:28;;;;;;;;;4.50;4.50;;;;;4.08;69.09;103020.38;5011418;28;11524;-68
2023/01/28 00:47:55;;;;;;;;;9.50;3.50;;;;;4.05;69.69;103018.78;4992080;28;11475;-68
2023/01/28 00:50:21;;;;;;;;;4.00;4.00;;;;;4.06;69.22;103022.31;4997065;28;11482;-66
2023/01/28 00:52:48;;;;;;;;;4.00;4.00;;;;;4.07;69.72;103011.53;4989544;28;11472;-65
2023/01/28 00:55:14;;;;;;;;;5.50;3.50;;;;;4.09;69.28;103011.44;5003876;28;11512;-68
2023/01/28 00:57:41;;;;;;;;;2.00;1.00;;;;;4.01;68.84;103019.06;4988361;28;11484;-67
2023/01/28 01:00:08;;;;;;;;;2.50;2.50;;;;;3.99;69.23;103020.97;4992192;28;11583;-68
2023/01/28 01:02:34;;;;;;;;;2.00;2.00;;;;;4.01;69.17;103024.38;4987612;28;11463;-67
2023/01/28 01:05:01;;;;;;;;;2.50;2.00;;;;;4.03;69.05;103022.50;4984607;28;11454;-68
2023/01/28 01:07:42;;;;;;;;;2.00;2.00;;;;;3.99;68.78;103026.31;4991793;28;11558;-68
2023/01/28 01:10:12;;;;;;;;;1.75;1.75;;;;;3.92;68.93;103016.03;4992394;28;12937;-68
2023/01/28 01:12:40;;;;;;;;;2.50;2.50;;;;;3.92;69.45;103024.03;5003968;28;11457;-68
2023/01/28 01:15:09;;;;;;;;;5.00;4.75;;;;;3.92;69.18;103021.34;5001446;28;11499;-66
2023/01/28 01:17:36;;;;;;;;;5.00;5.00;;;;;3.84;69.39;103025.47;5011187;28;11568;-68
2023/01/28 01:20:07;;;;;;;;;1.25;1.25;;;;;3.77;68.92;103026.78;4995911;28;11441;-68
2023/01/28 01:22:35;;;;;;;;;6.00;6.00;;;;;3.76;69.05;103025.94;4987789;28;11546;-68
2023/01/28 01:25:03;;;;;;;;;9.00;3.00;;;;;3.75;69.33;103021.56;4984487;28;11529;-68
2023/01/28 01:27:30;;;;;;;;;5.00;2.50;;;;;3.79;69.36;103024.91;4991334;28;11491;-68
2023/01/28 01:29:57;;;;;;;;;2.00;1.50;;;;;3.86;69.15;103028.91;4979374;28;11484;-68
2023/01/28 01:32:29;;;;;;;;;4.00;1.75;;;;;3.91;68.76;103035.63;4972010;28;12232;-68
2023/01/28 01:34:55;;;;;;;;;3.50;2.00;;;;;3.90;68.53;103025.94;4982594;28;11487;-67
2023/01/28 01:37:24;;;;;;;;;4.50;4.00;;;;;3.85;68.42;103017.38;5002816;28;11565;-66
2023/01/28 01:39:50;;;;;;;;;5.00;4.00;;;;;3.75;68.16;103029.56;4991142;28;11563;-68
2023/01/28 01:42:17;;;;;;;;;6.25;4.00;;;;;3.69;68.43;103030.81;4989606;28;11456;-68
2023/01/28 01:45:11;;;;;;;;;4.00;2.50;;;;;3.71;68.79;103028.03;4989275;28;11586;-68
2023/01/28 01:47:48;;;;;;;;;4.75;3.50;;;;;3.76;68.18;103033.94;5003134;28;11519;-68
2023/01/28 01:50:21;;;;;;;;;7.00;4.50;;;;;3.81;68.11;103029.19;4974241;28;11584;-67
2023/01/28 01:52:51;;;;;;;;;4.00;0.25;;;;;3.85;67.76;103028.06;4970699;28;11625;-66
2023/01/28 01:55:23;;;;;;;;;2.00;2.00;;;;;3.81;67.91;103018.53;5000235;28;11446;-67
2023/01/28 01:57:53;;;;;;;;;4.75;3.50;;;;;3.86;68.11;103023.56;4988495;28;11487;-67
2023/01/28 02:00:19;;;;;;;;;4.00;3.00;;;;;3.83;68.13;103021.94;5004893;28;11464;-67
2023/01/28 02:02:48;;;;;;;;;1.25;1.25;;;;;3.86;68.00;103026.25;4991780;28;11474;-67
2023/01/28 02:05:18;;;;;;;;;3.50;2.50;;;;;3.85;67.83;103028.06;4990990;28;11466;-67
2023/01/28 02:07:48;;;;;;;;;4.50;4.50;;;;;3.83;68.12;103021.09;4987736;28;11568;-67
2023/01/28 02:10:16;;;;;;;;;4.00;4.00;;;;;3.85;67.59;103030.72;4987754;28;11466;-67
2023/01/28 02:12:49;;;;;;;;;4.00;4.00;;;;;3.80;67.70;103038.13;4990320;28;11483;-67
2023/01/28 02:15:21;;;;;;;;;3.50;1.75;;;;;3.75;67.65;103031.38;5001006;28;11454;-67
2023/01/28 02:17:49;;;;;;;;;4.25;4.25;;;;;3.75;68.09;103037.56;4983542;28;11413;-67
2023/01/28 02:20:24;;;;;;;;;3.00;3.00;;;;;3.71;67.90;103036.03;5002805;28;11462;-67
2023/01/28 02:23:12;;;;;;;;;3.00;2.00;;;;;3.69;68.48;103046.78;4990857;28;11616;-67
2023/01/28 02:26:13;;;;;;;;;6.00;4.25;;;;;3.69;68.23;103054.78;5002007;28;12910;-68
2023/01/28 02:29:11;;;;;;;;;4.00;3.50;;;;;3.66;67.30;103043.47;4988882;28;11473;-67
2023/01/28 02:31:50;;;;;;;;;4.25;2.00;;;;;3.61;67.57;103046.41;4996073;28;11488;-67
2023/01/28 02:34:34;;;;;;;;;2.00;2.00;;;;;3.65;68.58;103041.75;4994995;28;11464;-67
2023/01/28 02:37:26;;;;;;;;;5.00;2.25;;;;;3.66;67.90;103030.16;4974846;28;11473;-67
2023/01/28 02:40:18;;;;;;;;;4.00;1.00;;;;;3.65;67.95;103031.09;4979936;28;11446;-68
2023/01/28 02:42:45;;;;;;;;;4.00;2.00;;;;;3.68;68.42;103041.53;5005651;28;12426;-67
2023/01/28 02:47:56;;;;;;;;;3.00;3.00;;;;;3.77;68.32;103048.09;4999028;28;11482;-67
2023/01/28 02:48:13;;;;;;;;;2.00;1.00;;;;;3.82;68.60;103041.56;5003160;28;11503;-67
2023/01/28 02:51:16;;;;;;;;;5.00;4.00;;;;;3.84;68.23;103033.44;4981667;28;11528;-67
2023/01/28 02:53:58;;;;;;;;;3.00;3.00;;;;;3.87;68.17;103034.13;4969648;28;11531;-67
2023/01/28 02:56:39;;;;;;;;;2.00;2.00;;;;;3.84;67.97;103026.31;4990440;28;11433;-68
2023/01/28 03:02:14;;;;;;;;;1.00;1.00;;;;;3.79;68.47;103033.75;5004359;28;11472;-67
2023/01/28 03:05:02;;;;;;;;;2.00;2.00;;;;;3.83;68.54;103039.75;4999001;28;11472;-67
2023/01/28 03:07:32;;;;;;;;;4.00;2.50;;;;;3.79;68.31;103039.06;4994314;28;11465;-67
2023/01/28 03:10:03;;;;;;;;;1.00;1.00;;;;;3.75;68.29;103037.56;4995392;28;11570;-68
2023/01/28 03:38:22;;;;;;;;;4.50;4.50;;;;;3.50;67.78;103021.41;5001530;28;11452;-67
2023/01/28 03:41:01;;;;;;;;;5.25;4.25;;;;;3.56;67.96;103036.97;4992387;28;11446;-68
2023/01/28 03:43:29;;;;;;;;;8.00;7.00;;;;;3.62;67.90;103041.94;4992054;28;12168;-67
2023/01/28 03:45:56;;;;;;;;;7.25;4.25;;;;;3.62;67.38;103041.94;4984534;28;11510;-68
2023/01/28 03:48:25;;;;;;;;;7.25;1.50;;;;;3.63;67.49;103047.16;5004212;28;11533;-68
2023/01/28 03:50:54;;;;;;;;;5.00;5.00;;;;;3.55;66.94;103044.13;5011144;28;11442;-67
2023/01/28 03:53:23;;;;;;;;;4.00;2.00;;;;;3.53;67.93;103043.38;4995445;28;11511;-67
2023/01/28 03:55:52;;;;;;;;;3.50;3.50;;;;;3.53;67.17;103040.72;4991749;28;11582;-68
2023/01/28 03:58:21;;;;;;;;;4.50;3.50;;;;;3.55;67.29;103054.75;4986215;28;11478;-68
2023/01/28 04:00:49;;;;;;;;;5.00;4.75;;;;;3.55;67.23;103053.91;4985239;28;11587;-67
2023/01/28 04:03:18;;;;;;;;;12.75;6.00;;;;;3.54;67.40;103053.06;4988302;28;11494;-67
2023/01/28 04:06:02;;;;;;;;;4.25;4.25;;;;;3.59;67.29;103056.28;4988247;28;11500;-66
2023/01/28 04:08:51;;;;;;;;;9.00;4.00;;;;;3.64;66.91;103056.84;4977162;28;11458;-67
2023/01/28 04:11:30;;;;;;;;;2.25;2.25;;;;;3.71;66.70;103065.34;4984297;28;11543;-67
2023/01/28 04:13:59;;;;;;;;;5.00;4.50;;;;;3.74;67.28;103065.16;4994721;28;12301;-66
2023/01/28 04:16:34;;;;;;;;;7.00;5.50;;;;;3.72;66.38;103067.03;4988177;28;11498;-67
2023/01/28 04:19:01;;;;;;;;;4.00;3.50;;;;;3.68;66.45;103063.69;4990050;28;11514;-68
2023/01/28 04:21:27;;;;;;;;;2.50;2.50;;;;;3.71;66.43;103058.19;4993733;28;11558;-68
2023/01/28 04:23:54;;;;;;;;;6.50;5.00;;;;;3.72;66.55;103054.56;4994599;28;11437;-68
2023/01/28 04:26:21;;;;;;;;;3.00;3.00;;;;;3.77;66.86;103048.09;5010463;28;11587;-68
2023/01/28 04:28:48;;;;;;;;;7.00;4.00;;;;;3.66;65.56;103043.47;4987053;28;11476;-67
2023/01/28 04:31:15;;;;;;;;;4.00;4.00;;;;;3.57;66.26;103044.03;5000447;28;11447;-68
2023/01/28 04:33:53;;;;;;;;;5.00;4.50;;;;;3.58;66.21;103046.59;5006131;28;11532;-68
2023/01/28 04:36:30;;;;;;;;;2.00;2.00;;;;;3.63;66.95;103052.47;4991023;28;11490;-67
2023/01/28 04:39:10;;;;;;;;;6.00;4.00;;;;;3.66;66.58;103039.00;4996326;28;11591;-67
2023/01/28 04:41:37;;;;;;;;;7.00;4.00;;;;;3.68;66.23;103039.72;5012004;28;11440;-67
2023/01/28 04:44:12;;;;;;;;;7.50;7.00;;;;;3.67;66.06;103047.81;5004172;28;11505;-67
2023/01/28 04:47:14;;;;;;;;;3.25;3.25;;;;;3.69;66.09;103045.94;4983180;28;11453;-68
2023/01/28 04:49:49;;;;;;;;;9.50;5.00;;;;;3.69;66.14;103043.28;5002878;28;12153;-67
2023/01/28 04:52:25;;;;;;;;;5.00;4.50;;;;;3.71;65.89;103038.69;5005446;28;11567;-67
2023/01/28 04:55:03;;;;;;;;;3.00;1.75;;;;;3.72;66.18;103046.56;5002214;28;11455;-67
2023/01/28 04:57:30;;;;;;;;;2.00;2.00;;;;;3.73;65.68;103052.78;5002458;28;11452;-67
2023/01/28 04:59:57;;;;;;;;;6.50;6.50;;;;;3.65;65.90;103050.59;4981496;28;11558;-67
2023/01/28 05:02:25;;;;;;;;;6.00;4.00;;;;;3.68;65.67;103060.19;4990795;28;12256;-67
2023/01/28 05:04:52;;;;;;;;;4.00;3.00;;;;;3.68;66.11;103063.69;5001393;28;11474;-67
2023/01/28 05:07:41;;;;;;;;;3.50;3.50;;;;;3.71;66.12;103063.53;4981644;28;11540;-67
2023/01/28 05:10:09;;;;;;;;;2.00;2.00;;;;;3.74;66.07;103072.28;5001600;28;11454;-67
2023/01/28 05:12:36;;;;;;;;;7.50;4.25;;;;;3.65;65.95;103069.25;4991404;28;11550;-67
2023/01/28 05:15:06;;;;;;;;;3.00;3.00;;;;;3.64;65.71;103066.66;4993658;28;11456;-67
2023/01/28 05:17:33;;;;;;;;;4.75;3.50;;;;;3.53;65.71;103061.16;4983412;28;11560;-67
2023/01/28 05:20:00;;;;;;;;;3.75;3.00;;;;;3.44;65.96;103052.78;4990660;28;11521;-67
2023/01/28 05:22:27;;;;;;;;;4.25;4.25;;;;;3.32;64.79;103052.63;4990228;28;11442;-67
2023/01/28 05:25:09;;;;;;;;;4.00;3.50;;;;;3.26;65.58;103053.88;5003028;28;12254;-67
2023/01/28 05:27:35;;;;;;;;;4.50;4.50;;;;;3.30;66.45;103050.06;4988730;28;11540;-67
2023/01/28 05:30:02;;;;;;;;;7.00;6.00;;;;;3.37;66.55;103050.56;4989316;28;11546;-67
2023/01/28 05:32:29;;;;;;;;;11.25;8.50;;;;;3.37;66.24;103043.44;4990217;28;11456;-67
2023/01/28 05:34:55;;;;;;;;;4.75;4.75;;;;;3.38;66.12;103039.81;5001460;28;11521;-67
2023/01/28 05:37:22;;;;;;;;;4.25;4.00;;;;;3.43;66.15;103043.06;4993181;28;11524;-67
2023/01/28 05:39:52;;;;;;;;;3.50;3.50;;;;;3.49;66.34;103043.66;5000295;28;11429;-67
2023/01/28 05:42:19;;;;;;;;;4.00;4.00;;;;;3.49;66.36;103047.16;4985701;28;11466;-67
2023/01/28 05:44:47;;;;;;;;;6.50;6.00;;;;;3.50;66.17;103040.03;4989882;28;11440;-67
2023/01/28 05:47:17;;;;;;;;;4.25;4.25;;;;;3.41;65.96;103050.28;4985225;28;11494;-67
2023/01/28 05:50:05;;;;;;;;;7.00;4.00;;;;;3.37;66.34;103058.56;4989130;28;12259;-67
2023/01/28 05:53:07;;;;;;;;;6.00;4.00;;;;;3.38;65.84;103053.13;5003051;28;11460;-67
2023/01/28 05:55:35;;;;;;;;;5.00;3.00;;;;;3.42;65.67;103056.47;4996211;28;11483;-67
2023/01/28 05:58:02;;;;;;;;;2.00;2.00;;;;;3.43;65.79;103056.38;4983292;28;11496;-67
2023/01/28 06:00:28;;;;;;;;;5.00;5.00;;;;;3.40;65.30;103053.91;4995116;28;11657;-67
2023/01/28 06:02:54;;;;;;;;;5.00;4.00;;;;;3.36;66.03;103055.06;4989852;28;11436;-68
2023/01/28 06:05:22;;;;;;;;;3.00;2.00;;;;;3.42;66.09;103049.34;5004736;28;11514;-67
2023/01/28 06:07:49;;;;;;;;;11.50;4.25;;;;;3.48;65.94;103045.44;4987315;28;11492;-67
2023/01/28 06:10:18;;;;;;;;;2.00;2.00;;;;;3.54;65.86;103049.53;4973242;28;11458;-68
2023/01/28 06:12:46;;;;;;;;;2.75;2.75;;;;;3.54;65.68;103054.88;4995572;28;11456;-67
2023/01/28 06:15:31;;;;;;;;;3.25;3.25;;;;;3.56;65.89;103050.28;4987760;28;11568;-68
2023/01/28 06:18:00;;;;;;;;;5.00;2.75;;;;;3.55;65.57;103064.56;4988882;28;11538;-67
2023/01/28 06:20:30;;;;;;;;;1.50;1.50;;;;;3.55;66.23;103053.91;5006165;28;11435;-67
2023/01/28 06:22:58;;;;;;;;;2.00;2.00;;;;;3.55;65.41;103049.44;4996460;28;11458;-67
2023/01/28 06:25:25;;;;;;;;;8.00;5.50;;;;;3.58;65.81;103051.91;4985614;28;11479;-67
2023/01/28 06:27:52;;;;;;;;;2.00;2.00;;;;;3.61;65.89;103059.72;4981729;28;11470;-67
2023/01/28 06:30:19;;;;;;;;;4.75;3.00;;;;;3.65;65.18;103065.72;5005406;28;11474;-67
2023/01/28 06:32:45;;;;;;;;;2.00;2.00;;;;;3.61;65.16;103070.38;5005529;28;12627;-67
2023/01/28 06:35:12;;;;;;;;;6.50;4.25;;;;;3.58;66.03;103064.38;5001678;28;11525;-67
2023/01/28 06:37:38;;;;;;;;;4.50;4.50;;;;;3.61;66.04;103066.88;4986073;28;11500;-67
2023/01/28 06:40:05;;;;;;;;;6.75;4.00;;;;;3.63;66.14;103064.94;5001860;28;11430;-68
2023/01/28 06:42:31;;;;;;;;;3.50;3.00;;;;;3.67;66.25;103069.13;4992284;28;11465;-67
2023/01/28 06:44:58;;;;;;;;;7.00;2.50;;;;;3.67;65.81;103063.81;5005854;28;11473;-68
2023/01/28 06:47:24;;;;;;;;;4.00;4.00;;;;;3.67;65.84;103069.13;4990524;28;11486;-68
2023/01/28 06:49:51;;;;;;;;;4.25;3.00;;;;;3.68;66.00;103065.50;5004124;28;11447;-68
2023/01/28 06:52:17;;;;;;;;;1.75;1.50;;;;;3.69;66.14;103067.25;5014116;28;11570;-67
2023/01/28 06:54:44;;;;;;;;;4.00;4.00;;;;;3.69;65.95;103061.91;5002752;28;11460;-67
2023/01/28 06:57:10;;;;;;;;;1.75;1.75;;;;;3.71;65.85;103070.66;4991945;28;11555;-67
2023/01/28 06:59:36;;;;;;;;;4.25;2.00;;;;;3.70;66.09;103063.63;4992289;28;11487;-68
2023/01/28 07:02:03;;;;;;;;;4.00;4.00;;;;;3.69;65.51;103065.44;4994020;28;11493;-67
2023/01/28 07:04:30;;;;;;;;;4.25;2.50;;;;;3.70;66.07;103075.13;4999158;28;11465;-68
2023/01/28 07:06:57;;;;;;;;;5.50;4.00;;;;;3.70;65.51;103069.81;4984407;28;11498;-68
2023/01/28 07:09:23;;;;;;;;;2.00;1.50;;;;;3.72;65.75;103075.88;4982663;28;12293;-68
2023/01/28 07:11:50;;;;;;;;;2.00;2.00;;;;;3.73;66.04;103074.09;4993000;28;11548;-67
2023/01/28 07:14:16;;;;;;;;;5.00;4.75;;;;;3.68;65.49;103074.34;4993454;28;11454;-68
2023/01/28 07:16:42;;;;;;;;;4.25;4.00;;;;;3.66;65.90;103073.59;4987886;28;11572;-68
2023/01/28 07:19:09;;;;;;;;;4.00;2.00;;;;;3.68;65.80;103078.84;4997848;28;11461;-68
2023/01/28 07:21:35;;;;;;;;;1.25;1.00;;;;;3.66;65.65;103070.94;5011839;28;11431;-68
2023/01/28 07:24:04;;;;;;;;;7.00;5.00;;;;;3.67;65.52;103066.47;4992835;28;11436;-68
2023/01/28 07:26:30;;;;;;;;;4.50;2.50;;;;;3.67;65.70;103066.47;4995977;28;11501;-68
2023/01/28 07:28:57;;;;;;;;;6.00;4.50;;;;;3.66;65.77;103062.09;4987677;28;11491;-67
2023/01/28 07:31:23;;;;;;;;;2.00;2.00;;;;;3.70;65.41;103069.81;4973990;28;12173;-68
2023/01/28 07:33:50;;;;;;;;;5.50;5.00;;;;;3.72;65.92;103077.69;5012731;28;11495;-67
2023/01/28 07:36:16;;;;;;;;;2.00;2.00;;;;;3.71;65.49;103082.16;4990952;28;11531;-67
2023/01/28 07:38:43;;;;;;;;;2.50;2.00;;;;;3.71;65.50;103084.81;4987952;28;11586;-67
2023/01/28 07:41:09;;;;;;;;;4.75;3.50;;;;;3.66;65.37;103086.94;4993596;28;11487;-67
2023/01/28 07:43:36;;;;;;;;;2.00;2.00;;;;;3.65;65.52;103082.56;4994230;28;11599;-68
2023/01/28 07:46:02;;;;;;;;;5.50;5.00;;;;;3.61;65.32;103091.69;5005489;28;11486;-67
2023/01/28 07:48:29;;;;;;;;;6.75;5.00;;;;;3.62;65.36;103089.88;4993108;28;11538;-68
2023/01/28 07:50:59;;;;;;;;;7.50;6.00;;;;;3.64;65.41;103087.97;5012503;28;11456;-68
2023/01/28 07:53:25;;;;;;;;;7.50;3.50;;;;;3.62;65.59;103085.41;4989719;28;11454;-68
2023/01/28 07:55:57;;;;;;;;;2.00;1.75;;;;;3.61;65.49;103097.00;4986395;28;11491;-66
2023/01/28 07:58:23;;;;;;;;;3.00;3.00;;;;;3.58;65.69;103094.53;4973812;28;11485;-67
2023/01/28 08:00:49;;;;;;;;;4.00;4.00;;;;;3.51;65.91;103090.53;4992374;28;11574;-67
2023/01/28 08:03:16;;;;;;;;;5.25;4.50;;;;;3.54;65.83;103089.47;4992552;28;11449;-68
2023/01/28 08:05:51;;;;;;;;;7.00;2.50;;;;;3.51;65.85;103093.19;4996639;28;12318;-68
2023/01/28 08:08:18;;;;;;;;;7.00;5.00;;;;;3.53;66.47;103085.13;4989292;28;11450;-66
2023/01/28 08:10:45;;;;;;;;;3.50;2.00;;;;;3.56;66.19;103093.75;4992873;28;11566;-66
2023/01/28 08:13:13;;;;;;;;;4.00;4.00;;;;;3.58;66.05;103094.53;4992187;28;11467;-66
2023/01/28 08:15:40;;;;;;;;;6.50;5.00;;;;;3.57;66.27;103095.50;4990943;28;11578;-67
2023/01/28 08:18:08;;;;;;;;;5.00;5.00;;;;;3.57;66.31;103099.97;4991472;28;11464;-67
2023/01/28 08:20:35;;;;;;;;;6.50;5.00;;;;;3.60;66.22;103108.59;4992236;28;11420;-66
2023/01/28 08:23:13;;;;;;;;;2.00;2.00;;;;;3.65;66.65;103113.66;4979845;28;11484;-67
2023/01/28 08:25:40;;;;;;;;;7.50;5.00;;;;;3.68;66.39;103119.63;4990384;28;11450;-67
2023/01/28 08:28:07;;;;;;;;;3.50;3.50;;;;;3.73;66.30;103124.72;4991801;28;11484;-67
2023/01/28 08:30:36;;;;;;;;;5.00;4.25;;;;;3.76;66.13;103139.63;4998385;28;11464;-67
2023/01/28 08:33:05;;;;;;;;;4.00;4.00;;;;;3.75;66.05;103128.13;4977900;28;11447;-67
2023/01/28 08:35:32;;;;;;;;;4.00;2.50;;;;;3.79;66.08;103113.66;4979767;28;11514;-67
2023/01/28 08:38:01;;;;;;;;;3.50;3.00;;;;;3.79;66.07;103115.47;4985619;28;11482;-67
2023/01/28 08:40:28;;;;;;;;;4.50;4.00;;;;;3.80;65.78;103122.50;4984342;28;11513;-67
2023/01/28 08:42:55;;;;;;;;;4.50;3.50;;;;;3.82;66.09;103132.13;4991821;28;11473;-67
2023/01/28 08:45:24;;;;;;;;;2.50;2.50;;;;;3.89;65.73;103129.94;5003464;28;11434;-67
2023/01/28 08:47:56;;;;;;;;;7.25;6.00;;;;;4.01;65.93;103126.53;4979706;28;11506;-67
2023/01/28 08:50:24;;;;;;;;;10.50;7.00;;;;;4.06;65.39;103127.09;4992103;28;11507;-67
2023/01/28 08:52:55;;;;;;;;;5.50;4.00;;;;;4.14;65.06;103132.81;4990616;28;11469;-67
2023/01/28 08:55:22;;;;;;;;;5.00;5.00;;;;;4.25;65.10;103139.25;4984188;28;12258;-67
2023/01/28 08:57:49;;;;;;;;;7.00;7.00;;;;;4.37;64.81;103139.34;4990028;28;12233;-68
2023/01/28 09:00:16;;;;;;;;;7.50;4.00;;;;;4.47;64.08;103143.16;4990181;28;11489;-68
2023/01/28 09:02:43;;;;;;;;;4.50;4.50;;;;;4.51;63.66;103145.63;4983144;28;11478;-67
2023/01/28 09:05:10;;;;;;;;;7.50;5.00;;;;;4.53;63.01;103141.88;5006766;28;12942;-67
2023/01/28 09:07:37;;;;;;;;;4.00;4.00;;;;;4.62;63.19;103146.66;4994474;28;11451;-67
2023/01/28 09:10:05;;;;;;;;;4.75;3.50;;;;;4.67;62.80;103151.69;5000697;28;11460;-67
2023/01/28 09:12:32;;;;;;;;;4.00;4.00;;;;;4.71;62.79;103170.06;4993680;28;11469;-67
2023/01/28 09:14:58;;;;;;;;;3.50;1.75;;;;;4.70;62.51;103164.84;4987400;28;11536;-67
2023/01/28 09:17:25;;;;;;;;;4.25;2.50;;;;;4.67;62.30;103162.34;4991582;28;11481;-67
2023/01/28 09:19:51;;;;;;;;;5.00;4.50;;;;;4.62;62.49;103164.47;4998611;28;11575;-67
2023/01/28 09:22:18;;;;;;;;;5.75;5.00;;;;;4.58;63.14;103168.28;4982604;28;11454;-67
2023/01/28 09:24:44;;;;;;;;;4.75;4.00;;;;;4.70;62.87;103175.50;4992880;28;11559;-67
2023/01/28 09:27:11;;;;;;;;;4.50;2.50;;;;;4.89;62.47;103172.47;4990577;28;11477;-67
2023/01/28 09:29:37;;;;;;;;;3.50;2.50;;;;;5.02;62.85;103159.19;4984734;28;11517;-67
2023/01/28 09:32:06;;;;;;;;;7.25;5.00;;;;;5.17;62.24;103156.38;4986895;28;11448;-67
2023/01/28 09:34:32;;;;;;;;;6.75;5.00;;;;;5.26;61.42;103162.03;4989363;28;11498;-67
2023/01/28 09:36:59;;;;;;;;;6.25;6.25;;;;;5.28;60.64;103165.50;4996625;28;11486;-67
2023/01/28 09:39:27;;;;;;;;;10.75;5.25;;;;;5.26;60.42;103165.56;4983129;28;11516;-66
2023/01/28 09:42:04;;;;;;;;;6.50;5.00;;;;;5.32;60.82;103175.84;4971658;28;11592;-67
2023/01/28 09:44:56;;;;;;;;;9.00;4.00;;;;;5.26;60.67;103172.72;4978356;28;11505;-66
2023/01/28 09:47:43;;;;;;;;;6.25;5.00;;;;;5.24;60.92;103186.19;4979848;28;12234;-67
2023/01/28 09:50:21;;;;;;;;;3.00;3.00;;;;;5.27;61.00;103188.66;4983009;28;11488;-67
2023/01/28 09:52:52;;;;;;;;;1.50;1.50;;;;;5.35;60.75;103191.69;4987218;28;11461;-67
2023/01/28 09:55:30;;;;;;;;;4.00;1.50;;;;;5.38;60.41;103199.47;4985622;28;11484;-67
2023/01/28 09:57:56;;;;;;;;;2.50;2.50;;;;;5.41;60.36;103195.75;4986724;28;11452;-67
2023/01/28 10:00:32;;;;;;;;;4.00;4.00;;;;;5.41;60.13;103182.41;4975261;28;11479;-67
2023/01/28 10:03:36;;;;;;;;;4.75;2.00;;;;;5.41;59.76;103179.72;4982919;28;11217;-66
2023/01/28 10:06:15;;;;;;;;;4.00;4.00;;;;;5.39;59.75;103187.84;4973269;28;11246;-66
2023/01/28 10:09:03;;;;;;;;;2.50;2.00;;;;;5.35;59.49;103182.81;4986636;28;11421;-67
2023/01/28 10:11:38;;;;;;;;;4.00;4.00;;;;;5.36;60.01;103179.19;4982666;28;11477;-67
2023/01/28 10:14:22;;;;;;;;;2.00;2.00;;;;;5.38;60.00;103170.09;4981716;28;11204;-67
2023/01/28 10:17:04;;;;;;;;;2.00;2.00;;;;;5.39;59.82;103170.97;4989838;28;11456;-67
2023/01/28 10:19:38;;;;;;;;;2.00;2.00;;;;;5.39;60.12;103177.16;4987642;28;11465;-66
2023/01/28 10:22:14;;;;;;;;;4.00;4.00;;;;;5.34;59.72;103178.41;4980643;28;11358;-67
2023/01/28 10:24:50;;;;;;;;;2.00;2.00;;;;;5.31;59.79;103176.81;4982568;28;11481;-66
2023/01/28 10:27:23;;;;;;;;;3.75;2.00;;;;;5.37;59.89;103179.06;4984215;28;11479;-65
2023/01/28 10:29:51;;;;;;;;;6.00;3.50;;;;;5.42;59.04;103163.59;4994239;28;11444;-66
2023/01/28 10:32:29;;;;;;;;;2.00;2.00;;;;;5.42;59.14;103178.75;4986048;28;11582;-66
2023/01/28 10:35:02;;;;;;;;;1.00;1.00;;;;;5.46;59.15;103167.75;4983574;28;11477;-66
2023/01/28 10:37:38;;;;;;;;;1.25;1.00;;;;;5.50;58.92;103171.09;5008199;28;11837;-67
2023/01/28 10:40:11;;;;;;;;;2.00;2.00;;;;;5.45;58.81;103143.84;5016303;28;11193;-67
2023/01/28 10:42:38;;;;;;;;;1.50;1.00;;;;;5.38;58.63;103140.72;4983196;28;11495;-66
2023/01/28 10:45:20;;;;;;;;;4.00;0.00;;;;;5.31;59.23;103128.75;4999188;28;11214;-67
2023/01/28 10:47:54;;;;;;;;;1.00;1.00;;;;;5.32;59.45;103125.13;4994232;28;11143;-67
2023/01/28 10:50:25;;;;;;;;;1.75;1.00;;;;;5.35;59.89;103118.72;5009192;28;11232;-67
2023/01/28 10:53:02;;;;;;;;;3.50;1.75;;;;;5.46;59.90;103110.81;5006820;28;11032;-67
2023/01/28 10:55:46;;;;;;;;;0.00;0.00;;;;;5.54;59.58;103096.94;4993940;28;11217;-67
2023/01/28 10:58:22;;;;;;;;;1.00;1.00;;;;;5.56;59.47;103103.88;4991358;28;11086;-66
2023/01/28 11:01:06;;;;;;;;;3.00;0.00;;;;;5.93;64.45;103104.03;4993349;28;11063;-67
2023/01/28 11:03:35;;;;;;;;;4.00;0.00;;;;;5.91;61.54;103080.06;4994313;28;11098;-67
2023/01/28 11:06:02;;;;;;;;;0.00;0.00;;;;;6.48;70.92;103084.00;5012808;28;11047;-67
2023/01/28 11:08:42;;;;;;;;;1.00;1.00;;;;;6.61;63.22;103076.78;4998666;28;10961;-67
2023/01/28 11:11:14;;;;;;;;;0.00;0.00;;;;;6.47;60.81;103074.25;4998883;28;11058;-67
2023/01/28 11:13:49;;;;;;;;;3.00;3.00;;;;;6.30;59.38;103069.31;5001632;28;10910;-66
2023/01/28 11:16:17;;;;;;;;;1.00;1.00;;;;;6.17;58.76;103066.66;5013401;28;10961;-66
2023/01/28 11:18:52;;;;;;;;;1.50;0.00;;;;;5.98;57.98;103060.91;5010721;28;10931;-67
2023/01/28 11:21:23;;;;;;;;;2.00;1.00;;;;;5.90;58.32;103061.44;4993518;28;11150;-67
2023/01/28 11:23:55;;;;;;;;;1.00;1.00;;;;;5.87;58.08;103054.47;4995489;28;10821;-67
2023/01/28 11:26:28;;;;;;;;;5.50;4.25;;;;;5.83;58.55;103058.31;4996197;28;11621;-67
2023/01/28 11:28:55;;;;;;;;;5.75;2.50;;;;;5.82;58.70;103069.13;4994551;28;11236;-67
2023/01/28 11:31:23;;;;;;;;;2.00;1.75;;;;;5.83;58.78;103065.50;5012818;28;11143;-67
2023/01/28 11:33:56;;;;;;;;;5.25;2.00;;;;;5.83;58.63;103062.81;5009429;28;11239;-66
2023/01/28 11:36:29;;;;;;;;;1.25;1.25;;;;;5.82;58.80;103059.31;4992379;28;12075;-66
2023/01/28 11:39:18;;;;;;;;;2.00;2.00;;;;;5.85;58.55;103067.09;4992559;28;11124;-67
2023/01/28 11:41:46;;;;;;;;;2.50;2.50;;;;;5.81;57.99;103065.63;4992023;28;11213;-67
2023/01/28 11:44:26;;;;;;;;;1.75;1.75;;;;;5.77;58.34;103073.97;4995669;28;11437;-67
2023/01/28 11:47:15;;;;;;;;;4.50;4.00;;;;;5.74;59.23;103072.34;4996804;28;10972;-67
2023/01/28 11:50:19;;;;;;;;;6.50;5.00;;;;;5.75;60.03;103070.53;5002952;28;11449;-67
2023/01/28 11:53:04;;;;;;;;;5.00;5.00;;;;;5.79;59.25;103075.53;4998452;28;11548;-67
2023/01/28 11:55:43;;;;;;;;;7.00;4.00;;;;;5.84;59.90;103080.59;4992894;28;12248;-67
2023/01/28 11:58:23;;;;;;;;;6.00;4.50;;;;;5.91;59.98;103085.41;4992784;28;11202;-67
2023/01/28 12:01:08;;;;;;;;;6.50;6.00;;;;;5.99;59.97;103089.34;4996019;28;11213;-67
2023/01/28 12:03:53;;;;;;;;;8.00;8.00;;;;;6.01;59.44;103093.63;4991188;28;11596;-66
2023/01/28 12:06:51;;;;;;;;;8.00;5.00;;;;;6.02;59.03;103094.50;4987541;28;11175;-67
2023/01/28 12:09:42;;;;;;;;;5.75;5.25;;;;;6.03;58.68;103094.38;4994528;28;11128;-67
2023/01/28 12:12:25;;;;;;;;;11.75;2.00;;;;;6.17;58.68;103093.41;5012423;28;11941;-68
2023/01/28 12:14:59;;;;;;;;;4.75;4.75;;;;;6.22;58.27;103091.25;4999079;28;11139;-68
2023/01/28 12:17:43;;;;;;;;;5.25;4.00;;;;;6.21;59.18;103086.88;4990459;28;11122;-67
2023/01/28 12:20:27;;;;;;;;;6.00;6.00;;;;;6.26;58.35;103086.53;4987227;28;11125;-68
2023/01/28 12:23:18;;;;;;;;;5.25;1.75;;;;;6.29;58.75;103081.81;4990897;28;11254;-68
2023/01/28 12:26:22;;;;;;;;;5.25;3.75;;;;;6.36;58.99;103055.47;4991235;28;11653;-67